createdAt,value
2019-03-11T00:00:38.119Z,41.35
2019-03-11T00:03:09.163Z,41.25
2019-03-11T00:05:38.368Z,41.35
2019-03-11T00:08:09.275Z,41.39
2019-03-11T00:10:38.376Z,41.37
2019-03-11T00:13:08.949Z,41.52
2019-03-11T00:15:38.051Z,41.43
2019-03-11T00:18:07.338Z,41.44
2019-03-11T00:20:38.161Z,41.39
2019-03-11T00:23:07.394Z,41.34
2019-03-11T00:25:36.590Z,41.35
2019-03-11T00:28:05.809Z,41.35
2019-03-11T00:30:35.203Z,41.44
2019-03-11T00:33:04.463Z,41.37
2019-03-11T00:35:33.520Z,41.34
2019-03-11T00:38:02.754Z,41.44
2019-03-11T00:40:31.872Z,41.26
2019-03-11T00:43:00.988Z,41.32
2019-03-11T00:45:30.221Z,41.22
2019-03-11T00:48:02.260Z,41.23
2019-03-11T00:50:30.330Z,41.28
2019-03-11T00:52:59.778Z,41.18
2019-03-11T00:55:28.829Z,41.18
2019-03-11T00:57:57.961Z,41.21
2019-03-11T01:00:29.889Z,41.20
2019-03-11T01:02:59.079Z,41.06
2019-03-11T01:05:28.350Z,40.99
2019-03-11T01:07:57.701Z,40.93
2019-03-11T01:10:27.001Z,40.98
2019-03-11T01:12:56.298Z,40.87
2019-03-11T01:15:25.704Z,40.88
2019-03-11T01:17:54.898Z,40.83
2019-03-11T01:20:24.216Z,40.81
2019-03-11T01:22:53.494Z,40.89
2019-03-11T01:25:22.694Z,40.94
2019-03-11T01:27:55.015Z,40.77
2019-03-11T01:30:24.167Z,40.79
2019-03-11T01:32:53.439Z,40.69
2019-03-11T01:35:22.623Z,40.67
2019-03-11T01:37:51.734Z,40.52
2019-03-11T01:40:20.829Z,40.46
2019-03-11T01:42:51.830Z,40.43
2019-03-11T01:45:20.978Z,40.56
2019-03-11T01:47:50.195Z,40.55
2019-03-11T01:50:19.438Z,40.58
2019-03-11T01:52:48.667Z,40.68
2019-03-11T01:55:17.863Z,40.60
2019-03-11T01:57:46.977Z,40.59
2019-03-11T02:00:17.682Z,40.70
2019-03-11T02:02:46.882Z,40.74
2019-03-11T02:05:16.139Z,40.86
2019-03-11T02:07:45.373Z,40.91
2019-03-11T02:10:19.333Z,40.95
2019-03-11T02:12:48.522Z,40.94
2019-03-11T02:15:18.960Z,40.94
2019-03-11T02:17:48.358Z,40.98
2019-03-11T02:20:18.558Z,40.93
2019-03-11T02:22:47.727Z,41.00
2019-03-11T02:25:16.927Z,41.05
2019-03-11T02:27:47.749Z,41.24
2019-03-11T02:30:17.923Z,41.16
2019-03-11T02:32:47.168Z,41.20
2019-03-11T02:35:30.370Z,41.28
2019-03-11T02:37:59.566Z,41.28
2019-03-11T02:40:30.860Z,41.33
2019-03-11T02:43:00.087Z,41.50
2019-03-11T02:45:29.279Z,41.43
2019-03-11T02:47:58.472Z,41.46
2019-03-11T02:50:27.668Z,41.63
2019-03-11T02:52:56.856Z,41.62
2019-03-11T02:55:25.972Z,41.67
2019-03-11T02:57:55.271Z,42.07
2019-03-11T03:00:24.546Z,42.09
2019-03-11T03:03:04.158Z,42.23
2019-03-11T03:05:34.958Z,42.95
2019-03-11T03:08:04.148Z,43.34
2019-03-11T03:10:33.323Z,43.49
2019-03-11T03:13:02.470Z,43.76
2019-03-11T03:15:31.649Z,43.85
2019-03-11T03:18:00.808Z,43.94
2019-03-11T03:20:29.926Z,43.59
2019-03-11T03:22:59.152Z,43.87
2019-03-11T03:25:34.474Z,44.15
2019-03-11T03:27:59.369Z,44.18
2019-03-11T03:30:28.694Z,45.43
2019-03-11T03:32:58.060Z,46.67
2019-03-11T03:35:27.445Z,46.59
2019-03-11T03:37:56.581Z,47.68
2019-03-11T03:40:27.477Z,48.04
2019-03-11T03:42:56.820Z,49.64
2019-03-11T03:45:28.654Z,50.04
2019-03-11T03:47:58.391Z,52.64
2019-03-11T03:50:30.186Z,54.70
2019-03-11T03:52:59.251Z,57.05
2019-03-11T03:55:28.511Z,56.77
2019-03-11T03:57:57.729Z,55.84
2019-03-11T04:00:26.922Z,57.50
2019-03-11T04:02:56.123Z,57.23
2019-03-11T04:05:25.535Z,57.77
2019-03-11T04:07:54.720Z,59.67
2019-03-11T04:10:23.950Z,59.97
2019-03-11T04:12:53.451Z,57.52
2019-03-11T04:15:22.664Z,58.75
2019-03-11T04:17:52.107Z,59.20
2019-03-11T04:20:23.778Z,59.11
2019-03-11T04:22:52.984Z,58.17
2019-03-11T04:25:22.274Z,57.36
2019-03-11T04:27:51.453Z,57.92
2019-03-11T04:30:25.242Z,58.50
2019-03-11T04:32:54.526Z,58.61
2019-03-11T04:35:23.743Z,59.52
2019-03-11T04:37:52.918Z,58.08
2019-03-11T04:40:22.077Z,58.17
2019-03-11T04:42:51.134Z,58.20
2019-03-11T04:45:20.336Z,59.10
2019-03-11T04:47:49.505Z,59.16
2019-03-11T04:50:19.787Z,61.04
2019-03-11T04:52:48.983Z,61.53
2019-03-11T04:55:18.383Z,61.38
2019-03-11T04:57:55.322Z,60.63
2019-03-11T05:00:27.455Z,59.99
2019-03-11T05:02:56.566Z,60.23
2019-03-11T05:05:25.737Z,60.35
2019-03-11T05:07:55.070Z,60.92
2019-03-11T05:10:24.267Z,60.95
2019-03-11T05:12:53.398Z,60.58
2019-03-11T05:15:22.682Z,60.45
2019-03-11T05:17:51.888Z,60.30
2019-03-11T05:20:21.390Z,59.83
2019-03-11T05:22:50.573Z,60.58
2019-03-11T05:25:19.773Z,60.19
2019-03-11T05:27:48.974Z,59.63
2019-03-11T05:30:19.401Z,58.47
2019-03-11T05:32:49.106Z,59.24
2019-03-11T05:35:18.366Z,59.23
2019-03-11T05:37:47.576Z,58.55
2019-03-11T05:40:21.222Z,58.43
2019-03-11T05:42:50.287Z,57.89
2019-03-11T05:45:20.305Z,58.96
2019-03-11T05:47:51.185Z,58.61
2019-03-11T05:50:20.395Z,59.25
2019-03-11T05:52:49.646Z,58.34
2019-03-11T05:55:20.989Z,58.64
2019-03-11T05:57:50.127Z,58.53
2019-03-11T06:00:30.073Z,58.80
2019-03-11T06:02:59.272Z,59.23
2019-03-11T06:05:28.467Z,58.53
2019-03-11T06:07:57.622Z,58.36
2019-03-11T06:10:26.927Z,56.37
2019-03-11T06:12:56.119Z,54.75
2019-03-11T06:15:25.344Z,53.84
2019-03-11T06:17:54.466Z,53.63
2019-03-11T06:20:31.470Z,50.56
2019-03-11T06:23:02.530Z,49.17
2019-03-11T06:25:31.702Z,48.76
2019-03-11T06:28:00.936Z,49.52
2019-03-11T06:30:30.122Z,49.90
2019-03-11T06:32:59.245Z,50.02
2019-03-11T06:35:28.473Z,50.00
2019-03-11T06:37:57.658Z,49.83
2019-03-11T06:40:26.861Z,49.74
2019-03-11T06:42:56.092Z,50.09
2019-03-11T06:45:25.275Z,48.39
2019-03-11T06:47:54.620Z,48.52
2019-03-11T06:50:23.851Z,46.68
2019-03-11T06:52:53.119Z,47.67
2019-03-11T06:55:22.318Z,48.01
2019-03-11T06:57:51.518Z,47.30
2019-03-11T07:00:21.870Z,47.00
2019-03-11T07:02:51.106Z,47.25
2019-03-11T07:05:21.214Z,45.59
2019-03-11T07:07:50.510Z,44.51
2019-03-11T07:10:19.719Z,42.20
2019-03-11T07:12:48.951Z,43.19
2019-03-11T07:15:18.225Z,44.05
2019-03-11T07:17:47.357Z,43.52
2019-03-11T07:20:19.493Z,43.52
2019-03-11T07:22:48.703Z,44.48
2019-03-11T07:25:17.898Z,43.22
2019-03-11T07:27:47.141Z,42.61
2019-03-11T07:30:17.757Z,43.17
2019-03-11T07:32:48.585Z,41.76
2019-03-11T07:35:17.854Z,41.74
2019-03-11T07:37:47.139Z,42.14
2019-03-11T07:40:28.445Z,42.03
2019-03-11T07:42:48.566Z,44.93
2019-03-11T07:45:17.985Z,44.91
2019-03-11T07:47:47.183Z,48.02
2019-03-11T07:50:17.518Z,49.78
2019-03-11T07:52:46.782Z,49.14
2019-03-11T07:55:16.215Z,48.84
2019-03-11T07:57:46.928Z,48.90
2019-03-11T08:00:18.380Z,48.20
2019-03-11T08:02:47.620Z,48.61
2019-03-11T08:05:17.250Z,48.11
2019-03-11T08:07:46.469Z,47.40
2019-03-11T08:10:20.314Z,47.78
2019-03-11T08:12:49.563Z,48.15
2019-03-11T08:15:18.827Z,48.11
2019-03-11T08:17:47.891Z,48.28
2019-03-11T08:20:17.934Z,47.58
2019-03-11T08:22:47.227Z,47.09
2019-03-11T08:25:16.767Z,47.08
2019-03-11T08:27:45.996Z,47.42
2019-03-11T08:30:19.313Z,48.15
2019-03-11T08:32:48.589Z,48.72
2019-03-11T08:35:17.945Z,49.84
2019-03-11T08:37:47.160Z,49.49
2019-03-11T08:40:18.330Z,49.99
2019-03-11T08:42:47.901Z,51.23
2019-03-11T08:45:18.705Z,52.54
2019-03-11T08:47:47.913Z,53.75
2019-03-11T08:50:17.347Z,54.67
2019-03-11T08:52:46.744Z,54.87
2019-03-11T08:55:15.971Z,56.31
2019-03-11T08:57:45.205Z,55.49
2019-03-11T09:00:24.751Z,57.43
2019-03-11T09:02:53.983Z,59.14
2019-03-11T09:05:23.116Z,58.25
2019-03-11T09:07:52.313Z,59.43
2019-03-11T09:10:24.625Z,60.53
2019-03-11T09:12:55.358Z,60.81
2019-03-11T09:15:26.067Z,61.46
2019-03-11T09:17:56.352Z,61.33
2019-03-11T09:20:25.541Z,61.02
2019-03-11T09:22:56.355Z,61.50
2019-03-11T09:25:30.895Z,62.28
2019-03-11T09:28:00.099Z,61.29
2019-03-11T09:30:29.295Z,62.25
2019-03-11T09:32:58.513Z,62.10
2019-03-11T09:35:29.245Z,62.89
2019-03-11T09:37:59.766Z,63.89
2019-03-11T09:40:30.646Z,64.40
2019-03-11T09:42:59.852Z,65.66
2019-03-11T09:45:29.046Z,65.60
2019-03-11T09:47:58.269Z,66.02
2019-03-11T09:50:30.383Z,66.15
2019-03-11T09:53:02.532Z,67.31
2019-03-11T09:55:33.315Z,67.31
2019-03-11T09:58:04.661Z,68.05
2019-03-11T10:00:35.812Z,68.20
2019-03-11T10:03:05.112Z,68.17
2019-03-11T10:05:34.236Z,68.15
2019-03-11T10:08:03.428Z,68.52
2019-03-11T10:10:32.729Z,68.27
2019-03-11T10:13:01.928Z,68.90
2019-03-11T10:15:31.125Z,66.86
2019-03-11T10:18:00.348Z,66.48
2019-03-11T10:20:29.654Z,65.55
2019-03-11T10:22:58.853Z,66.60
2019-03-11T10:25:28.095Z,66.47
2019-03-11T10:27:57.425Z,67.64
2019-03-11T10:30:26.610Z,67.61
2019-03-11T10:32:55.881Z,68.62
2019-03-11T10:35:33.018Z,67.54
2019-03-11T10:37:56.055Z,67.30
2019-03-11T10:40:32.603Z,68.50
2019-03-11T10:43:01.786Z,66.63
2019-03-11T10:45:33.149Z,65.52
2019-03-11T10:48:04.510Z,65.62
2019-03-11T10:50:35.179Z,65.92
2019-03-11T10:53:05.579Z,66.44
2019-03-11T10:55:36.639Z,66.34
2019-03-11T10:58:05.910Z,66.08
2019-03-11T11:00:35.157Z,65.58
2019-03-11T11:03:05.700Z,64.09
2019-03-11T11:05:36.509Z,63.23
2019-03-11T11:08:05.804Z,63.02
2019-03-11T11:10:34.976Z,63.26
2019-03-11T11:13:04.171Z,64.11
2019-03-11T11:15:35.756Z,63.26
2019-03-11T11:18:05.000Z,63.91
2019-03-11T11:20:34.196Z,63.82
2019-03-11T11:23:03.715Z,65.64
2019-03-11T11:25:34.635Z,66.94
2019-03-11T11:28:04.748Z,63.05
2019-03-11T11:30:33.945Z,63.21
2019-03-11T11:33:03.179Z,64.71
2019-03-11T11:35:32.453Z,63.53
2019-03-11T11:38:01.649Z,64.44
2019-03-11T11:40:31.873Z,64.86
2019-03-11T11:43:01.077Z,64.61
2019-03-11T11:45:31.878Z,64.44
2019-03-11T11:48:01.211Z,65.05
2019-03-11T11:50:30.421Z,65.92
2019-03-11T11:52:59.551Z,64.93
2019-03-11T11:55:28.988Z,65.15
2019-03-11T11:57:58.258Z,65.96
2019-03-11T12:00:39.384Z,65.85
2019-03-11T12:03:08.657Z,65.84
2019-03-11T12:05:37.848Z,65.38
2019-03-11T12:08:07.171Z,65.26
2019-03-11T12:10:36.343Z,66.00
2019-03-11T12:13:05.629Z,65.64
2019-03-11T12:15:34.870Z,65.36
2019-03-11T12:18:04.442Z,64.40
2019-03-11T12:20:33.787Z,64.75
2019-03-11T12:23:03.063Z,64.49
2019-03-11T12:25:32.231Z,63.98
2019-03-11T12:28:01.633Z,63.17
2019-03-11T12:30:32.083Z,63.10
2019-03-11T12:33:01.280Z,61.39
2019-03-11T12:35:30.581Z,62.09
2019-03-11T12:37:59.923Z,63.14
2019-03-11T12:40:29.122Z,62.20
2019-03-11T12:42:58.371Z,62.02
2019-03-11T12:45:27.867Z,62.62
2019-03-11T12:47:57.076Z,63.25
2019-03-11T12:50:33.208Z,62.94
2019-03-11T12:53:02.444Z,63.68
2019-03-11T12:55:31.645Z,64.80
2019-03-11T12:58:00.847Z,64.20
2019-03-11T13:00:30.002Z,63.82
2019-03-11T13:02:59.205Z,63.86
2019-03-11T13:05:28.503Z,64.37
2019-03-11T13:07:57.665Z,64.62
2019-03-11T13:10:29.121Z,64.66
2019-03-11T13:12:58.338Z,65.27
2019-03-11T13:15:27.875Z,66.08
2019-03-11T13:17:58.509Z,66.28
2019-03-11T13:20:33.739Z,65.46
2019-03-11T13:23:06.124Z,66.45
2019-03-11T13:25:35.395Z,66.65
2019-03-11T13:28:04.697Z,65.93
2019-03-11T13:30:34.865Z,65.85
2019-03-11T13:33:04.048Z,65.78
2019-03-11T13:35:33.191Z,65.81
2019-03-11T13:38:02.319Z,66.02
2019-03-11T13:40:32.984Z,66.23
2019-03-11T13:43:02.075Z,66.48
2019-03-11T13:45:31.203Z,66.57
2019-03-11T13:48:00.462Z,66.66
2019-03-11T13:50:31.353Z,67.05
2019-03-11T13:53:01.998Z,67.27
2019-03-11T13:55:31.326Z,66.89
2019-03-11T13:58:02.183Z,66.84
2019-03-11T14:00:33.007Z,66.79
2019-03-11T14:03:02.145Z,66.92
2019-03-11T14:05:31.425Z,66.99
2019-03-11T14:08:00.478Z,66.99
2019-03-11T14:10:29.606Z,67.46
2019-03-11T14:12:58.830Z,67.09
2019-03-11T14:15:27.948Z,67.22
2019-03-11T14:17:57.260Z,67.22
2019-03-11T14:20:26.484Z,67.37
2019-03-11T14:22:55.819Z,68.45
2019-03-11T14:25:25.022Z,68.16
2019-03-11T14:27:54.119Z,68.50
2019-03-11T14:30:23.829Z,68.19
2019-03-11T14:32:53.014Z,68.83
2019-03-11T14:35:22.284Z,67.97
2019-03-11T14:37:51.480Z,67.97
2019-03-11T14:40:24.441Z,68.43
2019-03-11T14:42:53.798Z,67.64
2019-03-11T14:45:23.900Z,67.71
2019-03-11T14:47:53.033Z,67.72
2019-03-11T14:50:22.271Z,67.62
2019-03-11T14:52:51.461Z,68.01
2019-03-11T14:55:20.593Z,68.01
2019-03-11T14:57:49.740Z,68.11
2019-03-11T15:00:20.146Z,68.18
2019-03-11T15:02:49.665Z,68.18
2019-03-11T15:05:19.818Z,68.79
2019-03-11T15:07:49.032Z,68.62
2019-03-11T15:10:19.785Z,68.55
2019-03-11T15:12:49.595Z,68.57
2019-03-11T15:15:20.601Z,68.30
2019-03-11T15:17:49.992Z,68.21
2019-03-11T15:20:19.476Z,68.12
2019-03-11T15:22:48.900Z,68.41
2019-03-11T15:25:19.452Z,68.91
2019-03-11T15:27:49.217Z,68.56
2019-03-11T15:30:23.055Z,68.77
2019-03-11T15:32:52.261Z,68.15
2019-03-11T15:35:21.605Z,67.58
2019-03-11T15:37:50.872Z,67.25
2019-03-11T15:40:20.279Z,65.66
2019-03-11T15:42:49.519Z,65.05
2019-03-11T15:45:19.522Z,65.25
2019-03-11T15:47:48.650Z,65.42
2019-03-11T15:50:29.672Z,65.46
2019-03-11T15:52:58.861Z,65.73
2019-03-11T15:55:28.301Z,65.73
2019-03-11T15:57:57.729Z,66.13
2019-03-11T16:00:27.001Z,66.74
2019-03-11T16:02:56.603Z,67.05
2019-03-11T16:05:26.758Z,66.42
2019-03-11T16:07:55.969Z,66.66
2019-03-11T16:10:25.193Z,65.93
2019-03-11T16:12:54.426Z,64.91
2019-03-11T16:15:23.817Z,64.91
2019-03-11T16:17:53.113Z,64.20
2019-03-11T16:20:23.883Z,63.53
2019-03-11T16:22:53.081Z,64.26
2019-03-11T16:25:22.423Z,63.30
2019-03-11T16:27:51.616Z,63.22
2019-03-11T16:30:24.899Z,63.64
2019-03-11T16:32:59.794Z,64.18
2019-03-11T16:35:26.931Z,65.48
2019-03-11T16:37:56.138Z,65.07
2019-03-11T16:40:25.839Z,65.88
2019-03-11T16:42:55.119Z,66.25
2019-03-11T16:45:24.425Z,66.29
2019-03-11T16:47:53.680Z,66.37
2019-03-11T16:50:24.742Z,66.69
2019-03-11T16:52:54.045Z,67.37
2019-03-11T16:55:28.415Z,67.37
2019-03-11T16:57:57.718Z,67.75
2019-03-11T17:00:28.652Z,67.91
2019-03-11T17:02:57.950Z,67.80
2019-03-11T17:05:27.231Z,68.48
2019-03-11T17:07:56.536Z,69.10
2019-03-11T17:10:25.964Z,69.26
2019-03-11T17:12:55.196Z,69.52
2019-03-11T17:15:24.344Z,69.51
2019-03-11T17:17:53.963Z,69.79
2019-03-11T17:20:23.256Z,69.87
2019-03-11T17:22:52.466Z,70.18
2019-03-11T17:25:21.761Z,70.51
2019-03-11T17:27:51.037Z,70.71
2019-03-11T17:30:24.658Z,70.49
2019-03-11T17:32:53.913Z,70.73
2019-03-11T17:35:23.125Z,70.61
2019-03-11T17:37:52.476Z,70.84
2019-03-11T17:40:22.721Z,71.18
2019-03-11T17:42:52.142Z,71.34
2019-03-11T17:45:21.558Z,71.54
2019-03-11T17:47:50.879Z,71.71
2019-03-11T17:50:24.699Z,71.84
2019-03-11T17:52:54.280Z,72.00
2019-03-11T17:55:23.716Z,71.93
2019-03-11T17:57:52.921Z,72.00
2019-03-11T18:00:28.878Z,72.24
2019-03-11T18:02:58.177Z,71.90
2019-03-11T18:05:27.879Z,71.93
2019-03-11T18:07:57.155Z,71.86
2019-03-11T18:10:26.493Z,71.83
2019-03-11T18:12:55.768Z,72.06
2019-03-11T18:15:25.171Z,72.13
2019-03-11T18:17:54.393Z,71.97
2019-03-11T18:20:23.667Z,71.96
2019-03-11T18:22:52.911Z,71.69
2019-03-11T18:25:22.364Z,71.82
2019-03-11T18:27:51.701Z,71.94
2019-03-11T18:30:28.983Z,72.46
2019-03-11T18:32:58.263Z,72.28
2019-03-11T18:35:27.577Z,72.35
2019-03-11T18:38:03.918Z,72.55
2019-03-11T18:40:27.822Z,72.06
2019-03-11T18:42:57.130Z,72.09
2019-03-11T18:45:26.402Z,71.96
2019-03-11T18:47:55.744Z,72.14
2019-03-11T18:50:25.560Z,72.44
2019-03-11T18:52:55.093Z,72.76
2019-03-11T18:55:24.378Z,72.37
2019-03-11T18:57:53.748Z,72.42
2019-03-11T19:00:24.245Z,72.48
2019-03-11T19:02:53.443Z,72.15
2019-03-11T19:05:24.399Z,72.13
2019-03-11T19:07:55.130Z,72.21
2019-03-11T19:10:24.693Z,72.18
2019-03-11T19:12:54.030Z,72.24
2019-03-11T19:15:26.721Z,72.34
2019-03-11T19:17:55.973Z,72.15
2019-03-11T19:20:26.298Z,71.90
2019-03-11T19:22:55.668Z,71.66
2019-03-11T19:25:24.864Z,71.45
2019-03-11T19:27:54.072Z,71.00
2019-03-11T19:30:25.748Z,70.73
2019-03-11T19:32:54.984Z,70.48
2019-03-11T19:35:24.187Z,70.24
2019-03-11T19:37:53.607Z,70.47
2019-03-11T19:40:25.364Z,70.46
2019-03-11T19:42:54.662Z,70.03
2019-03-11T19:45:23.945Z,70.02
2019-03-11T19:47:53.373Z,69.91
2019-03-11T19:50:22.785Z,69.97
2019-03-11T19:52:58.283Z,70.13
2019-03-11T19:55:23.227Z,70.16
2019-03-11T19:57:52.351Z,70.10
2019-03-11T20:00:22.726Z,70.10
2019-03-11T20:02:52.925Z,70.01
2019-03-11T20:05:27.351Z,70.33
2019-03-11T20:07:56.607Z,70.72
2019-03-11T20:10:25.959Z,70.90
2019-03-11T20:12:55.261Z,70.90
2019-03-11T20:15:24.713Z,70.59
2019-03-11T20:17:54.078Z,70.41
2019-03-11T20:20:23.453Z,70.69
2019-03-11T20:22:53.219Z,71.04
2019-03-11T20:25:28.181Z,71.04
2019-03-11T20:27:57.433Z,71.79
2019-03-11T20:30:27.105Z,71.99
2019-03-11T20:32:56.326Z,71.79
2019-03-11T20:35:25.674Z,71.67
2019-03-11T20:37:55.257Z,71.51
2019-03-11T20:40:24.556Z,71.60
2019-03-11T20:42:53.995Z,71.48
2019-03-11T20:45:23.496Z,71.64
2019-03-11T20:47:52.787Z,71.64
2019-03-11T20:50:22.207Z,71.63
2019-03-11T20:52:53.774Z,71.55
2019-03-11T20:55:23.304Z,71.19
2019-03-11T20:57:52.821Z,71.38
2019-03-11T21:00:25.084Z,71.65
2019-03-11T21:02:54.464Z,71.65
2019-03-11T21:05:41.015Z,71.82
2019-03-11T21:08:10.543Z,71.54
2019-03-11T21:10:40.171Z,71.29
2019-03-11T21:13:09.614Z,71.14
2019-03-11T21:15:39.022Z,71.28
2019-03-11T21:18:08.310Z,71.84
2019-03-11T21:20:37.794Z,71.97
2019-03-11T21:23:07.369Z,72.25
2019-03-11T21:25:37.705Z,72.78
2019-03-11T21:28:07.363Z,72.61
2019-03-11T21:30:36.730Z,72.92
2019-03-11T21:33:06.097Z,72.92
2019-03-11T21:35:35.623Z,73.06
2019-03-11T21:38:04.956Z,73.13
2019-03-11T21:40:34.344Z,73.25
2019-03-11T21:43:03.850Z,73.17
2019-03-11T21:45:34.790Z,73.30
2019-03-11T21:48:04.318Z,73.71
2019-03-11T21:50:33.601Z,73.48
2019-03-11T21:53:02.937Z,73.46
2019-03-11T21:55:32.162Z,73.61
2019-03-11T21:58:12.593Z,73.88
2019-03-11T22:00:34.785Z,73.96
2019-03-11T22:03:03.710Z,73.85
2019-03-11T22:05:33.012Z,73.94
2019-03-11T22:08:02.103Z,74.21
2019-03-11T22:10:31.396Z,74.09
2019-03-11T22:13:00.659Z,73.67
2019-03-11T22:15:29.844Z,73.41
2019-03-11T22:17:59.151Z,73.41
2019-03-11T22:20:28.596Z,73.56
2019-03-11T22:22:57.827Z,73.74
2019-03-11T22:25:27.036Z,73.74
2019-03-11T22:27:56.330Z,73.82
2019-03-11T22:30:25.916Z,73.76
2019-03-11T22:32:55.213Z,74.12
2019-03-11T22:35:24.569Z,74.27
2019-03-11T22:37:53.695Z,74.39
2019-03-11T22:40:22.922Z,74.62
2019-03-11T22:42:52.124Z,74.52
2019-03-11T22:45:24.117Z,74.43
2019-03-11T22:47:54.407Z,74.98
2019-03-11T22:50:23.675Z,75.15
2019-03-11T22:52:52.899Z,75.34
2019-03-11T22:55:22.147Z,75.50
2019-03-11T22:57:51.334Z,75.14
2019-03-11T23:00:26.991Z,75.24
2019-03-11T23:02:56.225Z,74.98
2019-03-11T23:05:25.562Z,75.38
2019-03-11T23:07:55.581Z,75.17
2019-03-11T23:10:24.972Z,74.79
2019-03-11T23:12:54.254Z,75.07
2019-03-11T23:15:23.438Z,75.17
2019-03-11T23:17:52.662Z,74.94
2019-03-11T23:20:21.940Z,75.13
2019-03-11T23:22:51.146Z,74.73
2019-03-11T23:25:20.357Z,74.78
2019-03-11T23:27:49.720Z,75.00
2019-03-11T23:30:19.242Z,75.06
2019-03-11T23:32:48.458Z,75.18
2019-03-11T23:35:17.648Z,75.21
2019-03-11T23:37:46.871Z,74.94
2019-03-11T23:40:16.152Z,74.88
2019-03-11T23:42:45.428Z,74.81
2019-03-11T23:45:14.635Z,74.82
2019-03-11T23:47:43.785Z,74.94
2019-03-11T23:50:14.036Z,74.94
2019-03-11T23:52:43.232Z,74.74
2019-03-11T23:55:13.216Z,74.57
2019-03-11T23:57:42.385Z,74.92
